SiktMolnbas
>≥ 10km≥ 10km ≥ 2000ft≥ 2000ft
< 10km< 10km < 2000ft< 2000ft
< 8km< 8km < 1500ft< 1500ft
< 5km< 5km < 1000ft< 1000ft
< 3km< 3km < 500ft< 500ft

Nytt 18 jan 2017:

Nytt 17 jan 2017:

ESNQ (19:20 UTC)

Kiruna flygplats

METAR

ESNQ 151920Z AUTO 04003KT 9999 BKN061/// OVC084/// 12/09 Q1010=

TAF

Ingen TAF hittades.

ESNG (19:20 UTC)

Gällivare (Kavaheden), Lapland Airport

METAR

DZ

ESNG 151920Z AUTO 09003KT 9999 -DZ ////// 11/10 Q1010 REDZ=

TAF

Ingen TAF hittades.

ESPA (19:20 UTC)

Luleå Airport (Kallax)

METAR

ESPA 151920Z AUTO 19006KT 150V220 9999 NCD 13/11 Q1011=

TAF

ESPA 151430Z 1515/1519 18010KT CAVOK=

ESNL (19:20 UTC)

Lycksele flygplats

METAR

ESNL 151920Z AUTO 17004KT 140V200 9999 NCD 15/08 Q1011=

TAF

Ingen TAF hittades.

ESNU (19:20 UTC)

Umeå City Airport

METAR

ESNU 151920Z 18007KT CAVOK 14/10 Q1012=

TAF

ESNU 151730Z 1518/1603 18010KT CAVOK PROB40 1523/1603 0700 BCFG=

ESNO (19:20 UTC)

Örnsköldsvik flygplats

METAR

ESNO 151920Z AUTO 18006KT 9999 NCD 13/09 Q1012=

TAF

Ingen TAF hittades.

ESNK (19:20 UTC)

Kramfors-Sollefteå flygplats

METAR

ESNK 151920Z AUTO 15010KT 9999 NCD 15/09 Q1011=

TAF

Ingen TAF hittades.

ESNN (19:20 UTC)

Sundsvall-Härnösands flygplats (Midlanda)

METAR

ESNN 151920Z AUTO 12007KT 9999 NCD 14/11 Q1011=

TAF

Ingen TAF hittades.

ESNZ (19:20 UTC)

Åre Östersund Airport (Frösön)

METAR

ESNZ 151920Z AUTO 14009KT 9999 SCT066/// OVC094/// 16/07 Q1008=

TAF

CB

ESNZ 151430Z 1515/1518 20008KT CAVOK PROB40 1515/1518 SCT050CB=

ESNS (19:20 UTC)

Skellefteå flygplats

METAR

ESNS 151920Z AUTO 19004KT 170V230 9999 NCD 16/09 Q1012=

TAF

TSCB

ESNS 151430Z 1515/1518 16007KT 9999 SCT030 PROB40 TEMPO 1515/1518 VRB10KT 4000 TSRA BKN035CB=

ESGT (19:20 UTC)

Trollhättan-Vänersborgs flygplats (Malöga flygplats)

METAR

RA

ESGT 151920Z AUTO 15013KT 9999 -RA BKN014/// BKN019/// OVC044/// 13/12 Q1002 RERA=

TAF

Ingen TAF hittades.

ESGP (19:20 UTC)

Göteborg City Airport (Säve)

METAR

DZ

ESGP 151920Z AUTO 18010KT 9999 DZ SCT011/// BKN038/// BKN057/// 14/12 Q1002=

TAF

RACB

ESGP 151430Z 1515/1517 11013G23KT 9999 -RA BKN040 TEMPO 1515/1517 4000 RA BKN013 SCT030CB BECMG 1515/1517 18012KT=

ESGG (19:20 UTC)

Göteborg-Landvetter flygplats

METAR

RA

ESGG 151920Z 19010KT 9999 -RA BKN010 12/11 Q1002=

TAF

Ingen TAF hittades.

ESMT (19:20 UTC)

Halmstads flygplats

METAR

ESMT 151920Z AUTO 23013KT 9999 FEW027/// SCT035/// BKN072/// 15/12 Q1005=

TAF

Ingen TAF hittades.

ESTA (19:20 UTC)

Ängelholm-Helsingborg flygplats

METAR

ESTA 151920Z AUTO 22010KT 9999 NCD 15/10 Q1005=

TAF

Ingen TAF hittades.

ESTL (19:20 UTC)

Ljungbyheds flygplats

METAR

ESTL 151920Z AUTO 19006KT 9999 FEW031/// 14/12 Q1006=

TAF

Ingen TAF hittades.

ESMS (19:20 UTC)

Malmö Airport

METAR

ESMS 151920Z 19007KT CAVOK 14/11 Q1006=

TAF

BR

ESMS 151713Z 1518/1618 20008KT 9999 SCT025 PROB40 1522/1604 2000 BR BECMG 1608/1611 15010KT=

ESMK (19:20 UTC)

Kristianstad Airport

METAR

ESMK 151920Z AUTO 18006KT 9999 NCD 13/13 Q1006=

TAF

Ingen TAF hittades.

ESDF (19:20 UTC)

Ronneby flygplats

METAR

ESDF 151920Z AUTO 22005KT 190V260 9999 BKN120/// 13/12 Q1007=

TAF

Ingen TAF hittades.

ESMQ (19:20 UTC)

Kalmar Airport

METAR

ESMQ 151920Z AUTO 19008KT 9999 FEW006/// 14/14 Q1007=

TAF

RA

ESMQ 151430Z 1515/1517 12013KT 9999 -RA NSC TEMPO 1515/1517 4000 RA=

ESMX (19:20 UTC)

Växjö, Smaland Airport

METAR

ESMX 151920Z AUTO 36007KT 9999 BKN012/// 13/13 Q1006=

TAF

Ingen TAF hittades.

ESGJ (19:20 UTC)

Jönköping Airport

METAR

ESGJ 151920Z AUTO 17009KT 9999 FEW009/// 13/13 Q1004=

TAF

Ingen TAF hittades.

ESSA (19:20 UTC)

Stockholm-Arlanda flygplats

METAR

ESSA 151920Z 10009KT CAVOK 13/07 Q1010 NOSIG=

TAF

RA

ESSA 151730Z 1518/1618 13012KT CAVOK TEMPO 1521/1524 RA BECMG 1600/1602 2500 DZ BKN004 BECMG 1602/1604 19010KT 9999 NSW BKN007 BECMG 1604/1606 SCT010=

ESSB (19:20 UTC)

Stockholm-Bromma flygplats

METAR

ESSB 151920Z AUTO 10011KT 9999 OVC120/// 15/08 Q1010=

TAF

ESSB 151130Z 1512/1516 15008KT CAVOK=

ESKN (19:20 UTC)

Stockholm-Skavsta flygplats

METAR

RA

ESKN 151920Z 09015KT 9999 -RA NSC 15/08 Q1008=

TAF

RABR

ESKN 151730Z 1518/1618 12012G22KT CAVOK TEMPO 1520/1522 4000 RA BKN012 BECMG 1522/1524 20003KT TEMPO 1522/1601 3000 -DZ BR BKN004 PROB40 1601/1605 0300 BCFG=

ESSP (19:20 UTC)

Norrköping flygplats

METAR

ESSP 151920Z AUTO 10012KT 9999 SCT047/// BKN070/// 13/10 Q1007=

TAF

Ingen TAF hittades.

ESSL (19:20 UTC)

Linköping - SAAB Flygplats

METAR

DZ

ESSL 151920Z AUTO 11013KT 9999 -DZ BKN028/// BKN039/// OVC078/// 13/10 Q1006=

TAF

ESSL 151430Z 1515/1517 12014G24KT CAVOK=

ESSV (19:20 UTC)

Visby flygplats

METAR

RA

ESSV 151920Z AUTO 13014KT 9999 -RA SCT055/// 15/10 Q1009=

TAF

Ingen TAF hittades.

ESOW (19:20 UTC)

Stockholm-Västerås flygplats

METAR

ESOW 151920Z 11011KT CAVOK 15/07 Q1009=

TAF

RA

ESOW 151730Z 1518/1521 12013KT CAVOK BECMG 1520/1521 RA=

ESOE (19:20 UTC)

Örebro flygplats

METAR

RA

ESOE 151920Z AUTO 08009KT 9999 -RA FEW059/// 14/09 Q1007=

TAF

Ingen TAF hittades.

ESOK (19:20 UTC)

Karlstad Airport

METAR

RA

ESOK 151920Z AUTO 07007KT 9999 RA FEW063/// 13/11 Q1005=

TAF

Ingen TAF hittades.

ESSD (19:20 UTC)

Borlänge, Dala Airport

METAR

ESSD 151920Z AUTO 11008KT 9999 BKN098/// OVC140/// 15/08 Q1009=

TAF

Ingen TAF hittades.

ESIB (19:20 UTC)

Såtenäs

METAR

RA

ESIB 151920Z AUTO 13012KT 9999 -RA SCT014/// BKN018/// OVC071/// 13/12 Q1002=

TAF

Ingen TAF hittades.

ESNV (19:20 UTC)

Vilhelmina flygplats

METAR

ESNV 151920Z AUTO VRB02KT 9999 FEW083/// 14/09 Q1010=

TAF

Ingen TAF hittades.

ESUT (19:20 UTC)

Hemavans flygplats

METAR

ESUT 151920Z AUTO 16005KT 9999 NCD 15/06 Q1009=

TAF

Ingen TAF hittades.

ESNX (19:20 UTC)

Arvidsjaur flygplats

METAR

ESNX 151920Z AUTO 12006KT 9999 BKN072/// 14/07 Q1010=

TAF

Ingen TAF hittades.

ESIA (19:20 UTC)

Karlsborg

METAR

ESIA 151920Z AUTO 11013KT 9999 OVC021/// 13/11 Q1004=

TAF

Ingen TAF hittades.

ESUP (19:20 UTC)

Pajala

METAR

ESUP 151920Z AUTO 14004KT 8000 // FEW032/// OVC050/// 10/10 Q1011=

TAF

Ingen TAF hittades.

ESPE (19:20 UTC)

Vidsel

METAR

ESPE 151920Z AUTO VRB01KT 9999 FEW068/// SCT092/// 15/07 Q1010=

TAF

Ingen TAF hittades.

ESCM (19:20 UTC)

Uppsala

METAR

ESCM 151920Z AUTO 12009KT 9999 FEW160/// 15/08 Q1010=

TAF

Ingen TAF hittades.

ESKM (19:20 UTC)

Mora/Siljan

METAR

ESKM 151920Z AUTO 12008KT 9999 BKN160/// 16/09 Q1008=

TAF

Ingen TAF hittades.

EKRN (18:50 UTC)

Bornholm Airport

METAR

EKRN 151850Z AUTO 21006KT 180V240 9999 NCD 14/12 Q1008=

TAF

EKRN 151704Z 1518/1603 22008KT 9999 BKN040 BECMG 1523/1602 10004KT=

EFIV (19:20 UTC)

Ivalo Airport

METAR

EFIV 151920Z AUTO 22006KT 9999 BKN031 12/10 Q1011=

TAF

Ingen TAF hittades.

EFKT (19:20 UTC)

Kittilä Airport

METAR

EFKT 151920Z VRB02KT 9999 BKN043 11/09 Q1011=

TAF

SHRACB

EFKT 151728Z 1518/1521 23004KT 9999 -RA BKN035 TEMPO 1518/1521 SHRA FEW035CB=

EFRO (19:20 UTC)

Rovaniemi Airport

METAR

EFRO 151920Z AUTO 22007KT CAVOK 12/06 Q1012=

TAF

TCU

EFRO 151728Z 1518/1618 21007KT CAVOK PROB30 1601/1603 2000 BCFG PROB30 1603/1605 BKN005 TEMPO 1608/1612 FEW030TCU=

EFKE (19:20 UTC)

Kemi-Tornio Airport

METAR

EFKE 151920Z AUTO 21006KT CAVOK 13/08 Q1012=

TAF

Ingen TAF hittades.

EFKS (19:20 UTC)

Kuusamo Airport

METAR

EFKS 151920Z AUTO 21003KT 190V250 CAVOK 12/09 Q1013=

TAF

SHRACB

EFKS 151728Z 1518/1521 18008KT 9999 FEW030 TEMPO 1518/1521 SHRA SCT030CB=

EFOU (19:20 UTC)

Oulu Airport

METAR

EFOU 151920Z AUTO 27004KT 240V300 9999 BKN045 15/08 Q1013=

TAF

CB

EFOU 151728Z 1518/1618 22006KT 9999 SCT040 TEMPO 1518/1520 FEW040CB=

EFKI (19:20 UTC)

Kajaani Airport

METAR

EFKI 151920Z AUTO 17003KT CAVOK 11/10 Q1014=

TAF

TSSHRACB

EFKI 151427Z 1515/1518 28007KT 9999 SCT035 TEMPO 1515/1516 24015G25KT 5000 TSRA SCT040CB TEMPO 1516/1518 SHRA FEW040CB=

EFKK (19:20 UTC)

Kokkola-Pietarsaari/Kruunupyy Airport

METAR

EFKK 151920Z AUTO 18008KT 9999 FEW033 //////CB 15/10 Q1013=

TAF

Ingen TAF hittades.

EFVA (19:20 UTC)

Vaasa Airport

METAR

EFVA 151920Z AUTO 20005KT CAVOK 15/08 Q1013=

TAF

SHRACB

EFVA 151728Z 1518/1618 18006KT 9999 SCT030 PROB30 1523/1602 2000 MIFG TEMPO 1610/1614 SHRA SCT030CB=

EFKU (19:20 UTC)

Kuopio Airport

METAR

EFKU 151920Z AUTO 27003KT CAVOK 16/06 Q1014=

TAF

EFKU 151730Z 1518/1618 26007KT CAVOK BECMG 1608/1610 18010KT=

EFJY (19:20 UTC)

Jyväskylä Airport

METAR

EFJY 151920Z AUTO 33002KT CAVOK 12/09 Q1014=

TAF

EFJY 151730Z 1518/1618 26004KT CAVOK PROB40 1600/1603 4000 BCFG BECMG 1608/1610 18010KT=

EFTP (19:20 UTC)

Tampere-Pirkkala Airport

METAR

EFTP 151920Z AUTO VRB02KT CAVOK 14/11 Q1014=

TAF

RA

EFTP 151730Z 1518/1618 22004KT CAVOK BECMG 1607/1609 15010KT PROB30 TEMPO 1615/1618 7000 RA=

EFPO (19:20 UTC)

Pori Airport

METAR

EFPO 151920Z AUTO VRB01KT CAVOK 13/09 Q1014=

TAF

Ingen TAF hittades.

EFTU (19:20 UTC)

Turku Airport

METAR

EFTU 151920Z AUTO 18004KT 150V220 CAVOK 15/08 Q1014=

TAF

RA

EFTU 151730Z 1518/1618 17006KT CAVOK PROB40 TEMPO 1610/1618 7000 RA=

EFHK (19:20 UTC)

Helsinki-Vantaa Airport

METAR

EFHK 151920Z 15008KT CAVOK 14/08 Q1016 NOSIG=

TAF

Ingen TAF hittades.

EFMA (19:20 UTC)

Mariehamn Airport

METAR

EFMA 151920Z AUTO 12008KT CAVOK 14/10 Q1013=

TAF

RA

EFMA 151730Z 1518/1603 16011KT CAVOK PROB30 TEMPO 1600/1603 7000 RA=

EKSB (18:50 UTC)

Sønderborg Airport

METAR

EKSB 151850Z AUTO 21007KT 180V240 9999 BKN051/// 15/09 Q1004=

TAF

Ingen TAF hittades.

EKSP (19:18 UTC)

Vojens Airport

METAR

SHRATCU

EKSP 151918Z 21012KT 8000 -SHRA SCT023TCU BKN045 13/10 Q1004=

TAF

TSSHRACBTCU

EKSP 151704Z 1518/1618 22015KT 9999 SCT020 TEMPO 1518/1521 22015G25KT 6000 -SHRA BKN030TCU TEMPO 1521/1612 6000 -SHRA SCT030TCU TEMPO 1612/1618 3000 SHRA SCT030CB PROB40 TEMPO 1614/1618 TSRA=

EKEB (18:50 UTC)

Esbjerg Airport

METAR

EKEB 151850Z AUTO 19012KT 9999 SCT021/// 14/10 Q1003=

TAF

SHRACB

EKEB 151714Z 1518/1522 21012KT 9999 SCT020 TEMPO 1519/1522 SHRA BKN012 SCT020CB=

EKYT (18:50 UTC)

Aalborg Airport

METAR

EKYT 151850Z AUTO 19009KT 9999 OVC042/// 14/12 Q1001=

TAF

SHRACBTCU

EKYT 151704Z 1518/1618 18012KT 9999 BKN050 TEMPO 1518/1521 18012G22KT 6000 -SHRA BKN012 SCT030CB TEMPO 1521/1611 FEW030TCU TEMPO 1611/1618 4000 SHRA SCT030CB=

EKKA (18:50 UTC)

Karup Airport

METAR

EKKA 151850Z AUTO 20007KT 9999 FEW026/// 13/11 Q1002=

TAF

TSSHRACBTCU

EKKA 151704Z 1518/1618 20008KT 9999 FEW008 OVC060 TEMPO 1518/1521 21012G22KT 6000 -SHRA BKN012 SCT030CB TEMPO 1521/1607 6000 -SHRA BKN010 SCT030TCU TEMPO 1607/1618 3000 SHRA SCT030CB PROB40 TEMPO 1616/1618 TSRA=

EKBI (18:50 UTC)

Billund Airport

METAR

EKBI 151850Z AUTO 21011KT 180V240 9999 FEW022/// BKN044/// 13/09 Q1003=

TAF

TSCB

EKBI 151701Z 1518/1618 18010KT 9999 BKN025 TEMPO 1518/1615 SCT020CB PROB40 1615/1618 2500 TSRA BKN015CB=

EKVD (18:50 UTC)

Kolding Airport

METAR

EKVD 151850Z AUTO 22014KT //// ///////// 14/09 Q1003=

TAF

Ingen TAF hittades.

EKCH (18:50 UTC)

Copenhagen Airport, Kastrup

METAR

EKCH 151850Z AUTO 22012KT 9999 NCD 15/10 Q1006 NOSIG=

TAF

EKCH 151701Z 1518/1618 19010KT 9999 SCT020=

EKRK (18:50 UTC)

Copenhagen Airport, Roskilde

METAR

EKRK 151850Z AUTO 21011KT 9999 NCD 14/10 Q1005=

TAF

EKRK 151714Z 1518/1603 20008KT 9999 SCT025=

ENRY (19:20 UTC)

Moss flygplats, Rygge

METAR

RA

ENRY 151920Z AUTO 08013KT 9999 -RA FEW022/// SCT037/// BKN055/// 13/10 Q1002=

TAF

SHRACB

ENRY 151700Z 1518/1618 09012KT 9999 -RA SCT030 BKN050 TEMPO 1518/1524 05015G25KT 4000 SHRA BKN014 FEW040CB BECMG 1521/1523 19010KT PROB40 1600/1609 BKN012 FEW020CB TEMPO 1609/1618 SHRA SCT030CB=

ENGM (19:20 UTC)

Oslo flygplats, Gardermoen

METAR

RA

ENGM 151920Z 03005KT 9999 -RA FEW044 BKN060 13/10 Q1004 TEMPO RA=

TAF

SHRACB

ENGM 151700Z 1518/1618 12010KT 9999 FEW030 BKN050 TEMPO 1519/1603 SHRA BKN030 FEW035CB BECMG 1600/1602 20008KT BKN008 BECMG 1607/1609 SCT012 FEW030CB=

ENTO (19:20 UTC)

Sandefjord flygplats, Torp

METAR

RA

ENTO 151920Z 06010KT 040V100 6000 RA SCT011 BKN015 12/12 Q1001 TEMPO BKN012 FEW030CB=

TAF

SHRACB

ENTO 151700Z 1518/1618 07010KT 9999 -RA SCT030 BKN050 TEMPO 1518/1522 06015G25KT SHRA BKN014 FEW030CB BECMG 1520/1522 20010KT PROB40 1522/1609 BKN006 FEW020CB TEMPO 1609/1618 SHRA SCT030CB=

ENCN (19:20 UTC)

Kristiansand flygplats, Kjevik

METAR

ENCN 151920Z 18011KT 150V210 9999 BKN008 13/12 Q0998=

TAF

RA

ENCN AMD 151837Z 1518/1521 18008KT 9999 -RA BKN007 PROB40 TEMPO 1518/1521 BKN004=

ENZV (19:20 UTC)

Stavanger-Sola flygplats

METAR

RA

ENZV 151920Z 10006KT 9999 -RA FEW020 SCT040 BKN060 15/09 Q0995=

TAF

SHRABRCBTCU

ENZV 151700Z 1518/1618 08009KT 9999 -SHRA FEW020TCU BKN040 TEMPO 1518/1521 RA BECMG 1520/1522 15012KT TEMPO 1521/1602 16020G30KT 4000 SHRA BR BKN008 SCT020CB TEMPO 1604/1618 16015G25KT SHRA BKN020CB=

ENHD (19:20 UTC)

Haugesund flygplats, Karmøy

METAR

RA

ENHD 151920Z AUTO 05011KT 9999 -RA FEW009/// SCT055/// 14/09 Q0996=

TAF

ENHD 151100Z 1512/1520 10015KT 9999 FEW020 BKN090=

ENBR (19:20 UTC)

Bergen flygplats, Flesland

METAR

SHRA

ENBR 151920Z 07008KT 030V120 9999 VCSH SCT070 BKN100 18/06 Q0999 RMK WIND 1200FT 09009KT=

TAF

SHRABRCB

ENBR 151700Z 1518/1618 10008KT CAVOK BECMG 1600/1602 17012KT PROB30 TEMPO 1601/1605 4000 SHRA BR BKN009 SCT018CB TEMPO 1609/1618 VRB06KT SHRA BKN030CB=

ENOV (18:50 UTC)

Ørsta-Volda flygplats, Hovden

METAR

ENOV 151850Z AUTO 25005KT 220V290 9999 NCD 19/08 Q1002 RMK WIND RWY 24 28004KT WIND 2090FT 15008KT=

TAF

Ingen TAF hittades.

ENML (18:50 UTC)

Molde flygplats, Årø

METAR

ENML 151850Z AUTO 04006KT 9999NDV NCD 20/10 Q1003=

TAF

ENML 151100Z 1512/1518 08008KT CAVOK=

ENKB (18:50 UTC)

Kristiansund flygplats, Kvernberget

METAR

ENKB 151850Z AUTO 12004KT 080V180 9999 FEW078/// 21/05 Q1004 RMK WIND 745FT 14008KT=

TAF

ENKB 151100Z 1512/1518 08007KT CAVOK=

ENRO (19:20 UTC)

Røros flygplats

METAR

ENRO 151920Z AUTO 14005KT 9999 BKN084/// 14/05 Q1007=

TAF

Ingen TAF hittades.

ENVA (19:20 UTC)

Trondheim flygplats, Værnes

METAR

TCU

ENVA 151920Z 19006KT 9999 SCT095TCU 20/07 Q1006 RMK WIND 670FT 19010KT=

TAF

SHRACBTCU

ENVA 151700Z 1518/1618 14008KT 9999 FEW040TCU PROB40 TEMPO 1605/1618 16015G25KT SHRA BKN040CB=

ENOL (19:20 UTC)

Ørland flygplats

METAR

ENOL 151920Z 13012KT CAVOK 20/09 Q1005 NOSIG=

TAF

CB

ENOL 151700Z 1518/1618 13010KT 9999 FEW030 TEMPO 1604/1614 14015G25KT SCT030CB TEMPO 1614/1618 FEW030CB BECMG 1614/1616 26010KT=

ENRM (18:50 UTC)

Rørvik flygplats, Ryum

METAR

ENRM 151850Z AUTO 02010KT 9999 NCD 17/11 Q1006=

TAF

Ingen TAF hittades.

ENBN (18:50 UTC)

Brønnøysund flygplats, Brønnøy

METAR

ENBN 151850Z AUTO 35010KT 9999NDV NCD 18/12 Q1007=

TAF

TSCB

ENBN 151700Z 1518/1603 36012KT 9999 BKN060 TEMPO 1518/1524 FEW045CB BECMG 1519/1522 12009KT PROB30 TEMPO 1518/1519 TS=

ENRA (18:50 UTC)

Mo i Rana flygplats, Røssvoll

METAR

ENRA 151850Z AUTO 09005KT 050V130 9999 NCD 19/06 Q1008=

TAF

TSCB

ENRA 150800Z 1509/1516 VRB03KT 9999 FEW035 TEMPO 1511/1516 FEW040CB PROB30 TEMPO 1512/1516 TSRA=

ENBO (19:20 UTC)

Bodö flygplats

METAR

CB

ENBO 151920Z 02011KT 9999 FEW050CB 16/11 Q1009=

TAF

CB

ENBO 151700Z 1518/1618 02006KT 9999 FEW030 TEMPO 1518/1521 FEW040CB BECMG 1521/1524 10010KT TEMPO 1612/1618 FEW040CB=

ENSH (18:50 UTC)

Svolvær flygplats, Helle

METAR

ENSH 151850Z AUTO 02013KT 9999 NCD 13/10 Q1009 RMK WIND 0150FT /////KT=

TAF

Ingen TAF hittades.

ENAN (19:20 UTC)

Andøya flygplats

METAR

ENAN 151920Z AUTO 02008KT 9999 OVC004/// 09/07 Q1011=

TAF

ENAN AMD 151820Z 1518/1618 36009KT 9999 BKN006 TEMPO 1518/1612 BKN004=

ENEV (18:50 UTC)

Harstad-Narvik flygplats

METAR

ENEV 151850Z 36008KT 320V030 9999 FEW040 13/10 Q1010 RMK WIND 1400FT VRB02KT=

TAF

TSCB

ENEV 151700Z 1518/1618 35008KT 9999 FEW040CB SCT050 BECMG 1518/1521 FEW040 TEMPO 1610/1618 FEW040CB PROB30 TEMPO 1615/1618 TSRA=

ENDU (19:20 UTC)

Bardufoss flygplats

METAR

TCU

ENDU 151920Z 00000KT 9999 FEW045TCU 17/10 Q1009 RMK WIND 1100FT VRB03KT WIND 2200FT 34004KT=

TAF

TSSHRACB

ENDU 151700Z 1518/1618 28005KT 9999 FEW050CB PROB30 TEMPO 1518/1520 SHRA BECMG 1518/1521 FEW050 BECMG 1610/1613 SCT050CB TEMPO 1612/1618 11010KT TSRA=

ENTC (19:20 UTC)

Tromsø flygplats

METAR

ENTC 151920Z 02014KT 9999 FEW025 10/07 Q1010 RMK WIND 2600FT 36003KT=

TAF

BRCB

ENTC 151700Z 1518/1618 02009KT 9999 FEW025 TEMPO 1518/1521 FEW040CB PROB40 TEMPO 1522/1608 BKN009 PROB30 TEMPO 1522/1607 2000 BR VV008 TEMPO 1610/1618 FEW040CB=

ENAT (18:50 UTC)

Alta flygplats

METAR

ENAT 151850Z AUTO 32005KT 9999 FEW053/// 14/11 Q1010 RMK WIND 700FT 30007KT=

TAF

Ingen TAF hittades.

ENNA (18:50 UTC)

Lakselv flygplats

METAR

ENNA 151850Z AUTO 35010KT 9999 FEW072/// 11/08 Q1011 RMK WIND 1800FT VRB04KT=

TAF

CBTCU

ENNA 151700Z 1518/1618 01005KT 9999 FEW010 SCT020 TEMPO 1518/1520 FEW040CB PROB40 1520/1610 BKN004 TEMPO 1610/1618 FEW040TCU=

ENHF (18:50 UTC)

Hammerfest flygplats

METAR

ENHF 151850Z AUTO 07011KT 9999 FEW072/// 08/07 Q1011 RMK WIND 1254FT 07010KT=

TAF

BRCB

ENHF 151700Z 1518/1603 07009KT 9999 FEW005 BKN050 TEMPO 1518/1520 FEW045CB PROB40 TEMPO 1518/1524 2000 BR VV008=

ENKR (18:50 UTC)

Kirkenes Airport, Høybuktmoen

METAR

ENKR 151850Z AUTO 20003KT 150V230 9999 BKN053/// BKN100/// 15/11 Q1011 RMK WIND 731FT 19006KT=

TAF

TSSHRACB

ENKR 151700Z 1518/1603 16006KT 9999 BKN060 TEMPO 1518/1519 SHRA SCT035CB PROB40 TEMPO 1518/1519 TSRA=

ENSB (19:20 UTC)

Svalbard Airport, Longyear

METAR

ENSB 151920Z VRB02KT 9999 BKN029 05/M00 Q1015 RMK WIND 1400FT 13007KT=

TAF

ENSB 151700Z 1518/1618 27008KT 9999 BKN030 BECMG 1523/1601 12012KT=

ENSK (18:50 UTC)

Stokmarknes Airport, Skagen

METAR

ENSK 151850Z AUTO 10009KT 9999 NCD 11/09 Q1010=

TAF

Ingen TAF hittades.

ENSR (18:50 UTC)

Sørkjosen Airport

METAR

ENSR 151850Z AUTO 32005KT 9999 NCD 11/09 Q1010 RMK WIND RWY 32 31004KT WIND 1119FT VRB02KT=

TAF

Ingen TAF hittades.

ENNM (18:50 UTC)

Namsos Airport, Høknesøra

METAR

RA

ENNM 151850Z AUTO 22008KT 140V270 9999 -RA NCD 20/08 Q1006=

TAF

Ingen TAF hittades.